Aviation Digital Data Service (ADDS)

Output produced by METARs form (1825 UTC 22 November 2017)
found at http://www.aviationweather.gov/adds/metars/
 
EFET 221820Z AUTO 01004KT //// VV002 M19/M22 Q1022
EFHA 221820Z AUTO 09008KT 020V120 9999 OVC008 M04/M06 Q1016
EFHK 221820Z 06008KT 9999 BKN004 00/M00 Q1015 NOSIG
TAF EFHK 221727Z 2218/2318 08009KT 9999 FEW004 BKN006 
     BECMG 2220/2222 BKN020 
     BECMG 2222/2224 12013KT 
     BECMG 2305/2307 13020G31KT 2500 -SN 
     TEMPO 2307/2312 1400 SNRA VV008 
     BECMG 2312/2315 9999 BKN008 
     BECMG 2315/2318 2000 DZ BKN003
       
EFIV 221820Z AUTO 22003KT 1500 -SHSN BR OVC003 M20/M23 Q1025
EFJO 221820Z AUTO 06004KT 030V110 9999 OVC014 M06/M08 Q1020
TAF EFJO 221724Z 2218/2224 05009KT 9999 BKN015 
     TEMPO 2218/2224 BKN012
       
EFJY 221820Z AUTO 09013KT 9999 BKN012 M06/M08 Q1018
TAF EFJY 221727Z 2218/2318 10010KT 9999 OVC012 
     TEMPO 2218/2304 BKN008 
     TEMPO 2304/2307 BKN015 
     BECMG 2308/2311 12015G25KT 5000 -SN 
     TEMPO 2308/2318 1500 SN VV008
       
EFKI 221820Z AUTO 08005KT 9999 BKN008 M09/M11 Q1021
TAF EFKI 221724Z 2218/2222 08010KT 9999 BKN010 
     TEMPO 2218/2222 BKN008
       
EFKE 221820Z 09012KT CAVOK M13/M15 Q1022
TAF EFKE 221724Z 2218/2224 08010KT CAVOK
       
EFKT 221820Z 02002KT 6000 -SN OVC005 M18/M21 Q1023
TAF EFKT 221434Z 2215/2219 03002KT 8000 BKN005 
     TEMPO 2215/2219 1400 BR BKN004
       
EFKK 221820Z 11009KT 060V140 CAVOK M06/M08 Q1017
TAF EFKK 221724Z 2218/2224 11010KT CAVOK
       
EFKU 221820Z AUTO 08006KT 020V210 9999 OVC016 M06/M09 Q1020
TAF EFKU 221724Z 2218/2318 06010KT 9999 BKN010 
     TEMPO 2218/2224 BKN015 
     BECMG 2300/2303 12010KT SCT015 
     TEMPO 2309/2312 12015G25KT 
     BECMG 2312/2314 12015G27KT 5000 -SN 
     TEMPO 2314/2318 1200 SN VV008
       
EFKS 221820Z 35001KT 8000 -SN IC BKN004 M21/M24 Q1022
TAF EFKS 221724Z 2218/2222 VRB01KT CAVOK 
     PROB30 2218/2222 0800 BCFG BKN001
       
EFLP 221820Z AUTO 08004KT 040V130 9999 OVC005 M06/M07 Q1018
EFMA 221820Z 09006KT 050V130 CAVOK 03/01 Q1009
TAF EFMA 221727Z 2218/2303 10006KT 9999 SCT025 BKN040 
     TEMPO 2218/2222 13017G27KT 6000 SHRA FEW025CB BKN100 
     TEMPO 2222/2303 2000 SN VV008
       
EFMI 221750Z AUTO 07005KT 360V110 9999 OVC009 M06/M08 Q1019
EFOU 221820Z AUTO 10008KT 9999 SCT006/// M08/M09 Q1021
TAF EFOU 221724Z 2218/2318 10010KT 9999 FEW009 
     TEMPO 2308/2312 12018G28KT 
     BECMG 2312/2314 12018G30KT 3000 -SN 
     TEMPO 2314/2318 1400 SN BKN014
       
EFPO 221820Z AUTO 11011KT 9999 BKN013/// 00/M02 Q1013
TAF EFPO 221727Z 2218/2223 11011KT 9999 SCT009 BKN015 
     TEMPO 2218/2220 BKN008 
     BECMG 2221/2223 12015G25KT
       
EFRO 221820Z AUTO 07011KT CAVOK M16/M18 Q1022
TAF EFRO 221724Z 2218/2318 08013KT CAVOK 
     TEMPO 2218/2308 0800 BCFG BKN001 
     TEMPO 2314/2318 11015G25KT 4000 -SN
       
EFSA 221820Z AUTO 06004KT 020V100 9999 OVC016 M05/M08 Q1019
TAF EFSA 221724Z 2218/2221 06007KT 9999 BKN013 
     TEMPO 2218/2221 BKN015
       
EFSI 221820Z AUTO 11013KT 9999 OVC012 M04/M06 Q1015
EFTP 221820Z AUTO 09009KT 9999 BKN005 M01/M02 Q1015
TAF EFTP 221727Z 2218/2318 09009KT 9999 BKN006 
     BECMG 2302/2304 12015G28KT 5000 -SN BKN012 
     TEMPO 2304/2315 1200 SN VV008 
     BECMG 2315/2318 15015KT 9999 BKN008
       
EFTU 221820Z AUTO 11011KT 9999 -SN OVC007/// 01/M01 Q1012
TAF EFTU 221727Z 2218/2318 11010KT 9999 OVC009 
     BECMG 2218/2220 BKN020 
     BECMG 2223/2302 12017G31KT 5000 -SN 
     BECMG 2302/2305 3000 VV011 
     BECMG 2305/2308 1000 SN VV007 
     TEMPO 2308/2310 5000 -SNRA BKN010 
     BECMG 2310/2313 5000 DZ BKN004
       
EFUT 221820Z AUTO 08009KT 9999 OVC005 M04/M05 Q1017
EFVA 221820Z AUTO 11011KT 9999 OVC011/// M02/M04 Q1015
TAF EFVA 221724Z 2218/2318 10012KT 9999 BKN009 
     TEMPO 2218/2304 12015G25KT BKN015 
     BECMG 2304/2306 12020G32KT 4000 -SN BKN015 
     TEMPO 2306/2318 1000 SN VV008